Latest Weather Observations for Cape Willoughby

IDS60801

Issued at 8:05 am CDT Tuesday 25 November 2014 (issued every 30 minutes, with the page automatically refreshed every 10 minutes)

About weather observations | Map of weather stations | Latest weather observations for SA | Other Formats
Station Details ID: 022803 Name: CAPE WILLOUGHBY Lat: -35.84 Lon: 138.13 Height: 55.0 m
Data from the previous 72 hours. | See also: Recent months at Cape Willoughby
Date/Time
CDT
Temp
°C
App
Temp
°C
Dew
Point
Rel
Hum
%
Delta-T
°C
Wind Press
QNH
hPa
Press
MSL
hPa
Rain
since 9 am
mm
Dir
 
Spd
km/h
Gust
km/h
Spd
kts
Gust
kts
25/08:00am 13.9 10.0 8.7 71 2.6 SW 19 30 10 16 1022.2 1022.1 0.6
25/07:30am 13.5 11.6 10.5 82 1.6 SW 11 19 6 10 1022.2 1022.1 0.6
25/07:00am 14.2 12.6 8.8 70 2.7 WSW 7 15 4 8 1021.6 1021.5 0.0
25/06:30am 14.0 11.3 8.8 71 2.6 WSW 13 19 7 10 1021.2 1021.1 0.0
25/06:00am 13.3 10.4 8.2 71 2.5 WSW 13 19 7 10 1020.8 1020.7 0.0
25/05:30am 13.7 9.6 7.9 68 2.9 SW 19 26 10 14 1020.5 1020.4 0.0
25/05:00am 14.2 9.6 8.2 67 3.0 SW 22 30 12 16 1020.1 1020.0 0.0
25/04:30am 14.2 8.3 7.3 63 3.4 SW 28 35 15 19 1019.7 1019.7 0.0
25/04:00am 14.3 9.0 8.3 67 3.0 SSW 26 35 14 19 1019.6 1019.6 0.0
25/03:30am 14.5 8.7 9.5 72 2.6 SSW 30 37 16 20 1019.4 1019.4 0.0
25/03:00am 14.4 8.4 8.8 69 2.8 SSW 30 37 16 20 1019.1 1019.1 0.0
25/02:30am 14.5 8.6 9.1 70 2.8 SSW 30 39 16 21 1019.2 1019.2 0.0
25/02:00am 14.6 8.8 9.4 71 2.7 SSW 30 39 16 21 1019.3 1019.3 0.0
25/01:30am 14.5 8.1 9.5 72 2.6 SSW 33 39 18 21 1019.2 1019.2 0.0
25/01:00am 14.4 8.1 9.6 73 2.5 SW 33 43 18 23 1019.2 1019.2 0.0
25/12:30am 14.5 8.9 8.9 69 2.8 SW 28 37 15 20 1019.6 1019.6 0.0
25/12:00am 14.6 9.1 9.2 70 2.8 SW 28 37 15 20 1019.6 1019.6 0.0
 
Date/Time
CDT
Temp
°C
App
Temp
°C
Dew
Point
Rel
Hum
%
Delta-T
°C
Wind Press
QNH
hPa
Press
MSL
hPa
Rain
since 9 am
mm
Dir
 
Spd
km/h
Gust
km/h
Spd
kts
Gust
kts
24/11:30pm 14.7 8.2 9.1 69 2.9 SW 33 44 18 24 1019.3 1019.3 0.0
24/11:00pm 14.8 8.2 8.7 67 3.1 SW 33 43 18 23 1019.3 1019.3 0.0
24/10:30pm 14.8 8.4 8.5 66 3.2 SW 32 41 17 22 1019.4 1019.4 0.0
24/10:00pm 14.9 7.2 8.6 66 3.2 SW 39 48 21 26 1018.9 1018.9 0.0
24/09:30pm 14.8 8.4 8.5 66 3.2 SW 32 43 17 23 1018.6 1018.6 0.0
24/09:00pm 14.8 8.3 8.3 65 3.3 SW 32 44 17 24 1018.3 1018.3 0.0
24/08:30pm 15.1 8.2 9.0 67 3.1 SW 35 46 19 25 1017.9 1017.9 0.0
24/08:00pm 15.0 8.5 8.3 64 3.4 WSW 32 43 17 23 1017.7 1017.7 0.0
24/07:30pm 15.4 8.1 8.9 65 3.3 SW 37 46 20 25 1017.1 1017.1 0.0
24/07:00pm 15.7 7.5 8.2 61 3.8 SW 41 52 22 28 1016.6 1016.6 0.0
24/06:30pm 16.0 6.9 7.0 55 4.4 SW 44 56 24 30 1016.3 1016.3 0.0
24/06:00pm 16.8 9.2 9.2 61 3.9 SW 39 50 21 27 1016.3 1016.3 0.0
24/05:30pm 16.0 7.8 8.0 59 4.0 SW 41 50 22 27 1015.9 1015.9 0.0
24/05:00pm 16.8 8.2 8.2 57 4.4 SW 43 54 23 29 1015.6 1015.6 0.0
24/04:30pm 16.8 7.9 7.7 55 4.6 SW 44 52 24 28 1015.4 1015.4 0.0
24/04:00pm 17.2 8.5 8.4 56 4.5 SW 44 56 24 30 1015.0 1015.0 0.0
24/03:30pm 16.9 9.7 9.3 61 4.0 SSW 37 46 20 25 1014.9 1014.9 0.0
24/03:00pm 17.3 9.1 8.4 56 4.6 SW 41 52 22 28 1014.7 1014.6 0.0
24/02:30pm 17.5 9.7 8.1 54 4.8 SSW 39 52 21 28 1014.7 1014.6 0.0
24/02:00pm 17.4 8.8 8.3 55 4.7 SSW 43 54 23 29 1014.5 1014.4 0.0
24/01:30pm 17.4 9.3 10.1 62 3.9 SSW 43 57 23 31 1014.4 1014.3 0.0
24/01:00pm 17.5 10.2 10.1 62 3.9 SSW 39 48 21 26 1014.3 1014.2 0.0
24/12:30pm 17.8 11.0 10.7 63 3.8 SSW 37 46 20 25 1014.2 1014.1 0.0
24/12:00pm 17.3 10.1 10.4 64 3.7 SW 39 50 21 27 1013.9 1013.8 0.0
24/11:30am 17.2 10.6 11.2 68 3.2 SSW 37 46 20 25 1013.7 1013.6 0.0
24/11:00am 17.4 11.4 10.1 62 3.9 SSW 32 43 17 23 1013.7 1013.6 0.0
24/10:30am 17.6 10.2 10.0 61 4.0 SW 39 48 21 26 1013.3 1013.2 0.0
24/10:00am 17.4 11.4 12.1 71 2.9 SSW 35 46 19 25 1012.9 1012.8 0.0
24/09:30am 16.4 11.4 13.9 85 1.4 SW 33 48 18 26 1012.9 1012.8 0.0
24/09:24am 16.8 10.4 13.3 80 2.0 SW 39 48 21 26 1012.6 1012.5 0.0
24/09:00am 17.4 16.4 13.5 78 2.2 SSW 11 19 6 10 1012.4 1012.3 0.6
24/08:30am 17.4 16.7 13.3 77 2.3 S 9 17 5 9 1011.9 1011.8 0.6
24/08:00am 16.9 15.3 12.8 77 2.3 S 13 20 7 11 1011.6 1011.5 0.6
24/07:30am 16.8 14.9 12.9 78 2.2 S 15 22 8 12 1011.3 1011.2 0.6
24/07:00am 16.4 13.8 13.3 82 1.7 S 19 22 10 12 1010.9 1010.8 0.6
24/06:30am 16.2 13.4 13.1 82 1.7 S 20 28 11 15 1010.8 1010.7 0.6
24/06:00am 16.2 13.4 13.3 83 1.6 S 20 26 11 14 1010.1 1010.0 0.6
24/05:30am 16.2 13.4 13.3 83 1.6 S 20 26 11 14 1009.6 1009.5 0.6
24/05:00am 16.1 13.2 13.0 82 1.7 S 20 28 11 15 1009.2 1009.1 0.6
24/04:30am 16.3 11.2 13.0 81 1.8 S 32 37 17 20 1008.7 1008.6 0.4
24/04:00am 16.2 11.0 12.9 81 1.8 S 32 37 17 20 1008.8 1008.7 0.4
24/03:30am 16.3 12.0 13.2 82 1.7 S 28 35 15 19 1009.2 1009.1 0.4
24/03:00am 16.4 11.2 12.9 80 2.0 S 32 37 17 20 1008.8 1008.7 0.4
24/02:30am 16.6 13.3 13.9 84 1.5 S 24 32 13 17 1009.4 1009.3 0.4
24/02:00am 16.3 13.8 13.6 84 1.5 S 19 22 10 12 1009.2 1009.1 0.4
24/01:30am 16.6 15.4 14.1 85 1.4 SSE 13 19 7 10 1009.5 1009.4 0.4
24/01:00am 16.8 14.7 13.7 82 1.8 SE 17 20 9 11 1009.8 1009.7 0.0
24/12:30am 16.9 14.2 13.6 81 1.9 SE 20 24 11 13 1009.8 1009.7 0.0
24/12:00am 16.9 14.2 13.6 81 1.9 SE 20 24 11 13 1010.0 1009.9 0.0
 
Date/Time
CDT
Temp
°C
App
Temp
°C
Dew
Point
Rel
Hum
%
Delta-T
°C
Wind Press
QNH
hPa
Press
MSL
hPa
Rain
since 9 am
mm
Dir
 
Spd
km/h
Gust
km/h
Spd
kts
Gust
kts
23/11:30pm 16.9 14.2 13.6 81 1.9 SE 20 24 11 13 1010.5 1010.4 0.0
23/11:00pm 16.9 14.2 13.6 81 1.9 SE 20 26 11 14 1011.1 1011.0 0.0
23/10:30pm 16.9 13.9 13.6 81 1.9 SE 22 26 12 14 1010.5 1010.4 0.0
23/10:00pm 17.2 14.8 13.9 81 1.9 SSE 19 22 10 12 1011.2 1011.1 0.0
23/09:30pm 17.1 15.2 14.2 83 1.7 SSE 17 22 9 12 1011.2 1011.1 0.0
23/09:00pm 17.1 15.3 14.4 84 1.6 SSE 17 22 9 12 1011.1 1011.0 0.0
23/08:30pm 17.4 15.2 15.0 86 1.4 S 20 26 11 14 1010.9 1010.8 0.0
23/08:00pm 17.8 16.3 15.2 85 1.5 SSE 17 20 9 11 1010.7 1010.6 0.0
23/07:30pm 17.9 17.4 15.0 83 1.7 SSE 11 17 6 9 1010.4 1010.3 0.0
23/07:00pm 18.5 16.8 14.8 79 2.2 SE 17 20 9 11 1009.5 1009.4 0.0
23/06:30pm 18.8 18.1 15.3 80 2.1 SE 13 17 7 9 1010.2 1010.1 0.0
23/06:00pm 19.0 19.3 14.9 77 2.4 ENE 7 11 4 6 1010.5 1010.4 0.0
23/05:30pm 19.1 19.3 14.8 76 2.5 NE 7 11 4 6 1010.5 1010.4 0.0
23/05:00pm 18.8 18.7 13.9 73 2.8 NE 7 11 4 6 1010.9 1010.8 0.0
23/04:30pm 18.6 17.5 14.3 76 2.5 ENE 13 17 7 9 1011.1 1011.0 0.0
23/04:00pm 19.3 17.6 14.8 75 2.6 NNE 17 20 9 11 1012.1 1012.0 0.0
23/03:30pm 19.2 16.9 14.0 72 3.0 NE 19 24 10 13 1012.0 1011.9 0.0
23/03:00pm 19.4 18.0 14.4 73 2.9 ENE 15 19 8 10 1011.6 1011.5 0.0
23/02:30pm 19.0 17.7 13.8 72 3.0 ENE 13 17 7 9 1011.6 1011.5 0.0
23/02:00pm 19.4 17.9 14.2 72 3.0 E 15 17 8 9 1011.6 1011.5 0.0
23/01:30pm 20.1 19.2 14.9 72 3.1 E 13 17 7 9 1012.6 1012.5 0.0
23/01:00pm 19.3 17.9 13.5 69 3.3 NE 13 17 7 9 1012.9 1012.8 0.0
23/12:30pm 19.1 16.5 13.7 71 3.1 N 20 24 11 13 1013.3 1013.2 0.0
23/12:00pm 19.6 18.1 14.2 71 3.1 NNE 15 19 8 10 1013.1 1013.0 0.0
23/11:30am 18.7 17.4 13.6 72 2.9 NNE 13 17 7 9 1012.8 1012.7 0.0
23/11:00am 18.5 17.4 13.1 71 3.1 NE 11 15 6 8 1012.8 1012.7 0.0
23/10:30am 17.9 17.3 13.4 75 2.5 ENE 9 11 5 6 1012.8 1012.7 0.0
23/10:00am 17.7 17.6 13.8 78 2.2 ENE 7 9 4 5 1012.5 1012.4 0.0
23/09:30am 17.4 16.9 13.7 79 2.1 NNE 9 11 5 6 1012.9 1012.8 0.0
23/09:00am 16.7 16.1 13.6 82 1.8 NNE 9 9 5 5 1013.0 1012.9 0.0
23/08:30am 16.3 15.9 13.0 81 1.8 N 7 9 4 5 1012.7 1012.6 0.0
23/08:00am 16.1 15.6 12.8 81 1.8 N 7 9 4 5 1012.9 1012.8 0.0
23/07:30am 15.5 15.6 12.8 84 1.5 NW 4 6 2 3 1012.5 1012.4 0.0
23/07:00am 14.6 14.0 12.3 86 1.3 WNW 7 9 4 5 1012.6 1012.5 0.0
23/06:30am 13.9 12.4 11.9 88 1.1 WNW 11 13 6 7 1012.5 1012.4 0.0
23/06:00am 13.7 12.2 11.9 89 1.0 WNW 11 13 6 7 1012.1 1012.0 0.0
23/05:30am 13.7 12.2 11.9 89 1.0 W 11 13 6 7 1012.0 1011.9 0.0
23/05:00am 13.9 12.5 12.1 89 1.0 WNW 11 13 6 7 1011.9 1011.8 0.0
23/04:30am 14.0 12.2 12.2 89 1.0 WNW 13 13 7 7 1011.9 1011.8 0.0
23/04:00am 14.2 13.2 12.2 88 1.1 W 9 11 5 6 1011.9 1011.8 0.0
23/03:30am 14.0 12.4 11.7 86 1.2 W 11 13 6 7 1011.9 1011.8 0.0
23/03:00am 14.3 12.8 12.0 86 1.2 WSW 11 11 6 6 1011.8 1011.7 0.0
23/02:30am 14.4 13.3 12.1 86 1.2 WSW 9 9 5 5 1011.9 1011.8 0.0
23/02:00am 14.6 14.1 12.5 87 1.1 WSW 7 7 4 4 1011.9 1011.8 0.0
23/01:30am 14.4 13.4 12.3 87 1.1 WSW 9 11 5 6 1012.2 1012.1 0.0
23/01:00am 14.5 13.4 12.0 85 1.4 WSW 9 11 5 6 1012.5 1012.4 0.0
23/12:30am 14.7 13.6 12.0 84 1.5 SW 9 9 5 5 1012.6 1012.5 0.0
23/12:00am 14.8 14.3 12.1 84 1.5 WSW 6 7 3 4 1012.8 1012.7 0.0
 
Date/Time
CDT
Temp
°C
App
Temp
°C
Dew
Point
Rel
Hum
%
Delta-T
°C
Wind Press
QNH
hPa
Press
MSL
hPa
Rain
since 9 am
mm
Dir
 
Spd
km/h
Gust
km/h
Spd
kts
Gust
kts
22/11:30pm 15.1 14.1 12.2 83 1.6 SW 9 13 5 7 1012.7 1012.6 0.0
22/11:00pm 15.9 13.2 12.8 82 1.7 SSW 19 26 10 14 1012.5 1012.4 0.0
22/10:30pm 15.8 13.0 13.1 84 1.5 SW 20 26 11 14 1012.5 1012.4 0.0
22/10:00pm 16.1 11.7 13.0 82 1.7 SW 28 33 15 18 1012.1 1012.0 0.0
22/09:30pm 16.2 10.9 13.1 82 1.7 SW 33 39 18 21 1011.6 1011.5 0.0
22/09:00pm 16.4 11.2 13.5 83 1.6 SW 33 41 18 22 1011.2 1011.1 0.0
22/08:30pm 16.4 11.2 13.5 83 1.6 SSW 33 41 18 22 1010.7 1010.6 0.0
22/08:00pm 16.4 10.9 13.5 83 1.6 SSW 35 43 19 23 1010.1 1010.0 0.0
22/07:30pm 17.0 12.2 14.1 83 1.7 SSW 32 37 17 20 1009.7 1009.6 0.0
22/07:00pm 17.4 12.7 14.3 82 1.8 SW 32 37 17 20 1009.4 1009.3 0.0
22/06:30pm 17.7 13.8 14.4 81 1.9 SSW 28 35 15 19 1009.1 1009.0 0.0
22/06:00pm 18.1 14.3 14.8 81 1.9 SSW 28 35 15 19 1008.9 1008.8 0.0
22/05:30pm 18.4 14.7 14.9 80 2.0 SSW 28 35 15 19 1008.6 1008.5 0.0
22/05:00pm 18.2 13.7 14.9 81 1.9 SSW 32 41 17 22 1008.2 1008.1 0.0
22/04:30pm 18.9 14.3 15.0 78 2.3 SW 33 43 18 23 1007.8 1007.7 0.0
22/04:00pm 19.6 14.7 15.3 76 2.5 SW 35 44 19 24 1007.3 1007.2 0.0
22/03:30pm 20.0 16.2 14.8 72 3.1 SSW 28 37 15 20 1007.2 1007.1 0.0
22/03:00pm 21.1 18.2 15.0 68 3.6 SSW 24 33 13 18 1007.3 1007.2 0.0
22/02:30pm 21.3 18.8 13.5 61 4.5 S 19 24 10 13 1007.0 1006.9 0.0
22/02:00pm 24.2 20.0 15.7 59 5.1 NNW 32 39 17 21 1006.9 1006.8 0.0
22/01:30pm 24.1 17.8 15.6 59 5.2 NNW 43 57 23 31 1006.6 1006.5 0.0
22/01:00pm 23.6 17.3 16.1 62 4.6 NNW 44 52 24 28 1005.9 1005.8 0.0
22/12:30pm 23.2 17.0 16.5 66 4.1 NNW 44 52 24 28 1006.1 1006.0 0.0
22/12:00pm 22.4 15.8 16.4 69 3.7 NNW 46 59 25 32 1006.4 1006.3 0.0
22/11:30am 24.0 17.9 15.2 58 5.3 NNW 41 50 22 27 1006.5 1006.4 0.0
22/11:00am 23.4 16.6 14.4 57 5.3 NNW 43 50 23 27 1006.4 1006.3 0.0
22/10:30am 23.0 15.5 14.0 57 5.3 NNW 46 57 25 31 1006.1 1006.0 0.0
22/10:00am 22.8 14.3 13.3 55 5.5 N 50 57 27 31 1005.8 1005.7 0.0
22/09:30am 22.4 13.1 13.2 56 5.3 NNW 54 63 29 34 1005.8 1005.7 0.0
22/09:00am 21.7 14.0 13.3 59 4.9 NNW 46 57 25 31 1006.0 1005.9 0.0
22/08:30am 20.3 13.3 13.7 66 3.8 N 43 52 23 28 1005.8 1005.7 0.0

Other Formats:

Comma delimited format used in spreadsheet applications
http://www.bom.gov.au/fwo/IDS60801/IDS60801.94822.axf

JavaScript Object Notation format (JSON) in row-major order
http://www.bom.gov.au/fwo/IDS60801/IDS60801.94822.json